sensor_id;sensor_type;location;lat;lon;timestamp;temperature;humidity
46590;DHT22;32313;48.722;9.362;2023-05-16T00:00:18;8.30;99.90
46590;DHT22;32313;48.722;9.362;2023-05-16T00:02:44;8.30;99.90
46590;DHT22;32313;48.722;9.362;2023-05-16T00:05:10;8.30;99.90
46590;DHT22;32313;48.722;9.362;2023-05-16T00:07:41;8.20;99.90
46590;DHT22;32313;48.722;9.362;2023-05-16T00:10:08;8.20;99.90
46590;DHT22;32313;48.722;9.362;2023-05-16T00:12:34;8.20;99.90
46590;DHT22;32313;48.722;9.362;2023-05-16T00:15:02;8.10;99.90
46590;DHT22;32313;48.722;9.362;2023-05-16T00:17:29;8.10;99.90
46590;DHT22;32313;48.722;9.362;2023-05-16T00:19:55;8.10;99.90
46590;DHT22;32313;48.722;9.362;2023-05-16T00:22:23;8.10;99.90
46590;DHT22;32313;48.722;9.362;2023-05-16T00:24:49;8.00;99.90
46590;DHT22;32313;48.722;9.362;2023-05-16T00:27:15;8.00;99.90
46590;DHT22;32313;48.722;9.362;2023-05-16T00:29:41;8.00;99.90
46590;DHT22;32313;48.722;9.362;2023-05-16T00:32:07;8.00;99.90
46590;DHT22;32313;48.722;9.362;2023-05-16T00:34:33;8.00;99.90
46590;DHT22;32313;48.722;9.362;2023-05-16T00:37:00;8.10;99.90
46590;DHT22;32313;48.722;9.362;2023-05-16T00:39:25;8.10;99.90
46590;DHT22;32313;48.722;9.362;2023-05-16T00:41:52;8.20;99.90
46590;DHT22;32313;48.722;9.362;2023-05-16T00:44:17;8.30;99.90
46590;DHT22;32313;48.722;9.362;2023-05-16T00:46:43;8.30;99.90
46590;DHT22;32313;48.722;9.362;2023-05-16T00:49:11;8.40;99.90
46590;DHT22;32313;48.722;9.362;2023-05-16T00:51:37;8.50;99.90
46590;DHT22;32313;48.722;9.362;2023-05-16T00:54:05;8.50;99.90
46590;DHT22;32313;48.722;9.362;2023-05-16T00:56:31;8.40;99.90
46590;DHT22;32313;48.722;9.362;2023-05-16T00:58:57;8.40;99.90
46590;DHT22;32313;48.722;9.362;2023-05-16T01:01:24;8.40;99.90
46590;DHT22;32313;48.722;9.362;2023-05-16T01:03:51;8.30;99.90
46590;DHT22;32313;48.722;9.362;2023-05-16T01:06:18;8.30;99.90
46590;DHT22;32313;48.722;9.362;2023-05-16T01:08:44;8.20;99.90
46590;DHT22;32313;48.722;9.362;2023-05-16T01:14:03;8.10;99.90
46590;DHT22;32313;48.722;9.362;2023-05-16T01:16:41;8.10;99.90
46590;DHT22;32313;48.722;9.362;2023-05-16T01:19:49;8.10;99.90
46590;DHT22;32313;48.722;9.362;2023-05-16T01:25:05;7.90;99.90
46590;DHT22;32313;48.722;9.362;2023-05-16T01:27:37;7.90;99.90
46590;DHT22;32313;48.722;9.362;2023-05-16T01:30:16;7.90;99.90
46590;DHT22;32313;48.722;9.362;2023-05-16T01:32:42;7.90;99.90
46590;DHT22;32313;48.722;9.362;2023-05-16T01:35:11;7.90;99.90
46590;DHT22;32313;48.722;9.362;2023-05-16T01:40:49;7.80;99.90
46590;DHT22;32313;48.722;9.362;2023-05-16T01:43:24;7.70;99.90
46590;DHT22;32313;48.722;9.362;2023-05-16T01:46:01;7.70;99.90
46590;DHT22;32313;48.722;9.362;2023-05-16T01:48:34;7.70;99.90
46590;DHT22;32313;48.722;9.362;2023-05-16T01:51:01;7.70;99.90
46590;DHT22;32313;48.722;9.362;2023-05-16T01:53:38;7.70;99.90
46590;DHT22;32313;48.722;9.362;2023-05-16T01:56:09;7.80;99.90
46590;DHT22;32313;48.722;9.362;2023-05-16T01:58:37;7.80;99.90
46590;DHT22;32313;48.722;9.362;2023-05-16T02:01:04;7.90;99.90
46590;DHT22;32313;48.722;9.362;2023-05-16T02:03:31;8.00;99.90
46590;DHT22;32313;48.722;9.362;2023-05-16T02:05:57;8.10;99.90
46590;DHT22;32313;48.722;9.362;2023-05-16T02:08:24;8.20;99.90
46590;DHT22;32313;48.722;9.362;2023-05-16T02:10:51;8.20;99.90
46590;DHT22;32313;48.722;9.362;2023-05-16T02:13:17;8.20;99.90
46590;DHT22;32313;48.722;9.362;2023-05-16T02:15:43;8.30;99.90
46590;DHT22;32313;48.722;9.362;2023-05-16T02:18:08;8.30;99.90
46590;DHT22;32313;48.722;9.362;2023-05-16T02:20:35;8.30;99.90
46590;DHT22;32313;48.722;9.362;2023-05-16T02:23:01;8.30;99.90
46590;DHT22;32313;48.722;9.362;2023-05-16T02:25:28;8.30;99.90
46590;DHT22;32313;48.722;9.362;2023-05-16T02:27:54;8.30;99.90
46590;DHT22;32313;48.722;9.362;2023-05-16T02:30:20;8.30;99.90
46590;DHT22;32313;48.722;9.362;2023-05-16T02:32:46;8.30;99.90
46590;DHT22;32313;48.722;9.362;2023-05-16T02:35:13;8.30;99.90
46590;DHT22;32313;48.722;9.362;2023-05-16T02:37:41;8.30;99.90
46590;DHT22;32313;48.722;9.362;2023-05-16T02:40:07;8.30;99.90
46590;DHT22;32313;48.722;9.362;2023-05-16T02:42:35;8.40;99.90
46590;DHT22;32313;48.722;9.362;2023-05-16T02:45:01;8.40;99.90
46590;DHT22;32313;48.722;9.362;2023-05-16T02:47:27;8.50;99.90
46590;DHT22;32313;48.722;9.362;2023-05-16T02:49:53;8.60;99.90
46590;DHT22;32313;48.722;9.362;2023-05-16T02:52:19;8.60;99.90
46590;DHT22;32313;48.722;9.362;2023-05-16T02:54:45;8.70;99.90
46590;DHT22;32313;48.722;9.362;2023-05-16T02:57:11;8.70;99.90
46590;DHT22;32313;48.722;9.362;2023-05-16T02:59:37;8.80;99.90
46590;DHT22;32313;48.722;9.362;2023-05-16T03:02:03;8.80;99.90
46590;DHT22;32313;48.722;9.362;2023-05-16T03:04:29;8.90;99.90
46590;DHT22;32313;48.722;9.362;2023-05-16T03:06:55;8.90;99.90
46590;DHT22;32313;48.722;9.362;2023-05-16T03:09:21;9.00;99.90
46590;DHT22;32313;48.722;9.362;2023-05-16T03:11:47;9.00;99.90
46590;DHT22;32313;48.722;9.362;2023-05-16T03:14:13;9.00;99.90
46590;DHT22;32313;48.722;9.362;2023-05-16T03:16:38;9.00;99.90
46590;DHT22;32313;48.722;9.362;2023-05-16T03:19:06;9.00;99.90
46590;DHT22;32313;48.722;9.362;2023-05-16T03:21:32;9.00;99.90
46590;DHT22;32313;48.722;9.362;2023-05-16T03:23:58;9.10;99.90
46590;DHT22;32313;48.722;9.362;2023-05-16T03:26:24;9.10;99.90
46590;DHT22;32313;48.722;9.362;2023-05-16T03:28:50;9.10;99.90
46590;DHT22;32313;48.722;9.362;2023-05-16T03:31:16;9.10;99.90
46590;DHT22;32313;48.722;9.362;2023-05-16T03:33:42;9.10;99.90
46590;DHT22;32313;48.722;9.362;2023-05-16T03:36:09;9.10;99.90
46590;DHT22;32313;48.722;9.362;2023-05-16T03:38:35;9.10;99.90
46590;DHT22;32313;48.722;9.362;2023-05-16T03:41:01;9.10;99.90
46590;DHT22;32313;48.722;9.362;2023-05-16T03:43:27;9.10;99.90
46590;DHT22;32313;48.722;9.362;2023-05-16T03:45:53;9.20;99.90
46590;DHT22;32313;48.722;9.362;2023-05-16T03:48:20;9.10;99.90
46590;DHT22;32313;48.722;9.362;2023-05-16T03:50:46;9.10;99.90
46590;DHT22;32313;48.722;9.362;2023-05-16T03:53:12;9.00;99.90
46590;DHT22;32313;48.722;9.362;2023-05-16T03:55:38;9.00;99.90
46590;DHT22;32313;48.722;9.362;2023-05-16T03:58:04;9.00;99.90
46590;DHT22;32313;48.722;9.362;2023-05-16T04:00:30;9.00;99.90
46590;DHT22;32313;48.722;9.362;2023-05-16T04:02:55;8.90;99.90
46590;DHT22;32313;48.722;9.362;2023-05-16T04:05:21;9.00;99.90
46590;DHT22;32313;48.722;9.362;2023-05-16T04:07:47;8.90;99.90
46590;DHT22;32313;48.722;9.362;2023-05-16T04:10:13;9.00;99.90
46590;DHT22;32313;48.722;9.362;2023-05-16T04:12:39;9.00;99.90
46590;DHT22;32313;48.722;9.362;2023-05-16T04:15:05;9.10;99.90
46590;DHT22;32313;48.722;9.362;2023-05-16T04:17:32;9.10;99.90
46590;DHT22;32313;48.722;9.362;2023-05-16T04:19:58;9.10;99.90
46590;DHT22;32313;48.722;9.362;2023-05-16T04:22:25;9.20;99.90
46590;DHT22;32313;48.722;9.362;2023-05-16T04:24:51;9.30;99.90
46590;DHT22;32313;48.722;9.362;2023-05-16T04:27:17;9.30;99.90
46590;DHT22;32313;48.722;9.362;2023-05-16T04:29:44;9.40;99.90
46590;DHT22;32313;48.722;9.362;2023-05-16T04:32:10;9.50;99.90
46590;DHT22;32313;48.722;9.362;2023-05-16T04:34:37;9.50;99.90
46590;DHT22;32313;48.722;9.362;2023-05-16T04:37:04;9.60;99.90
46590;DHT22;32313;48.722;9.362;2023-05-16T04:39:30;9.60;99.90
46590;DHT22;32313;48.722;9.362;2023-05-16T04:41:56;9.70;99.90
46590;DHT22;32313;48.722;9.362;2023-05-16T04:44:24;9.70;99.90
46590;DHT22;32313;48.722;9.362;2023-05-16T04:46:51;9.70;99.90
46590;DHT22;32313;48.722;9.362;2023-05-16T04:49:18;9.70;99.90
46590;DHT22;32313;48.722;9.362;2023-05-16T04:51:44;9.70;99.90
46590;DHT22;32313;48.722;9.362;2023-05-16T04:54:09;9.80;99.90
46590;DHT22;32313;48.722;9.362;2023-05-16T04:56:36;9.80;99.90
46590;DHT22;32313;48.722;9.362;2023-05-16T04:59:01;9.80;99.90
46590;DHT22;32313;48.722;9.362;2023-05-16T05:01:29;9.90;99.90
46590;DHT22;32313;48.722;9.362;2023-05-16T05:03:55;10.00;99.90
46590;DHT22;32313;48.722;9.362;2023-05-16T05:06:20;10.10;99.90
46590;DHT22;32313;48.722;9.362;2023-05-16T05:08:47;10.20;99.90
46590;DHT22;32313;48.722;9.362;2023-05-16T05:11:13;10.20;99.90
46590;DHT22;32313;48.722;9.362;2023-05-16T05:13:38;10.30;99.90
46590;DHT22;32313;48.722;9.362;2023-05-16T05:16:04;10.30;99.90
46590;DHT22;32313;48.722;9.362;2023-05-16T05:18:30;10.30;99.90
46590;DHT22;32313;48.722;9.362;2023-05-16T05:20:56;10.40;99.90
46590;DHT22;32313;48.722;9.362;2023-05-16T05:23:22;10.40;99.90
46590;DHT22;32313;48.722;9.362;2023-05-16T05:25:49;10.50;99.90
46590;DHT22;32313;48.722;9.362;2023-05-16T05:28:15;10.50;99.90
46590;DHT22;32313;48.722;9.362;2023-05-16T05:30:41;10.60;99.90
46590;DHT22;32313;48.722;9.362;2023-05-16T05:33:07;10.70;99.90
46590;DHT22;32313;48.722;9.362;2023-05-16T05:35:33;10.80;99.90
46590;DHT22;32313;48.722;9.362;2023-05-16T05:37:58;10.90;99.90
46590;DHT22;32313;48.722;9.362;2023-05-16T05:40:24;10.90;99.90
46590;DHT22;32313;48.722;9.362;2023-05-16T05:42:50;11.00;99.90
46590;DHT22;32313;48.722;9.362;2023-05-16T05:45:16;11.00;99.90
46590;DHT22;32313;48.722;9.362;2023-05-16T05:47:42;11.10;99.90
46590;DHT22;32313;48.722;9.362;2023-05-16T05:50:09;11.10;99.90
46590;DHT22;32313;48.722;9.362;2023-05-16T05:52:37;11.20;99.90
46590;DHT22;32313;48.722;9.362;2023-05-16T05:55:04;11.20;99.90
46590;DHT22;32313;48.722;9.362;2023-05-16T05:57:29;11.30;99.90
46590;DHT22;32313;48.722;9.362;2023-05-16T05:59:55;11.40;99.90
46590;DHT22;32313;48.722;9.362;2023-05-16T06:02:21;11.50;99.90
46590;DHT22;32313;48.722;9.362;2023-05-16T06:04:47;11.50;99.90
46590;DHT22;32313;48.722;9.362;2023-05-16T06:07:12;11.50;99.90
46590;DHT22;32313;48.722;9.362;2023-05-16T06:09:40;11.50;99.90
46590;DHT22;32313;48.722;9.362;2023-05-16T06:12:08;11.50;99.90
46590;DHT22;32313;48.722;9.362;2023-05-16T06:14:34;11.60;99.90
46590;DHT22;32313;48.722;9.362;2023-05-16T06:16:59;11.70;99.90
46590;DHT22;32313;48.722;9.362;2023-05-16T06:19:25;11.80;99.90
46590;DHT22;32313;48.722;9.362;2023-05-16T06:21:51;11.90;99.90
46590;DHT22;32313;48.722;9.362;2023-05-16T06:24:16;12.00;99.90
46590;DHT22;32313;48.722;9.362;2023-05-16T06:26:42;12.10;99.90
46590;DHT22;32313;48.722;9.362;2023-05-16T06:29:10;12.40;99.90
46590;DHT22;32313;48.722;9.362;2023-05-16T06:31:36;12.50;99.90
46590;DHT22;32313;48.722;9.362;2023-05-16T06:34:02;12.50;99.90
46590;DHT22;32313;48.722;9.362;2023-05-16T06:36:28;12.60;99.90
46590;DHT22;32313;48.722;9.362;2023-05-16T06:38:54;12.60;99.90
46590;DHT22;32313;48.722;9.362;2023-05-16T06:41:20;12.70;99.90
46590;DHT22;32313;48.722;9.362;2023-05-16T06:43:46;12.80;99.90
46590;DHT22;32313;48.722;9.362;2023-05-16T06:46:11;12.80;99.90
46590;DHT22;32313;48.722;9.362;2023-05-16T06:48:37;12.90;99.90
46590;DHT22;32313;48.722;9.362;2023-05-16T06:51:03;12.90;99.90
46590;DHT22;32313;48.722;9.362;2023-05-16T06:53:29;13.00;99.90
46590;DHT22;32313;48.722;9.362;2023-05-16T06:55:55;13.00;99.90
46590;DHT22;32313;48.722;9.362;2023-05-16T06:58:21;13.20;99.90
46590;DHT22;32313;48.722;9.362;2023-05-16T07:00:48;13.20;99.90
46590;DHT22;32313;48.722;9.362;2023-05-16T07:03:14;13.30;99.90
46590;DHT22;32313;48.722;9.362;2023-05-16T07:05:40;13.50;99.90
46590;DHT22;32313;48.722;9.362;2023-05-16T07:08:08;13.60;99.90
46590;DHT22;32313;48.722;9.362;2023-05-16T07:10:34;13.70;99.90
46590;DHT22;32313;48.722;9.362;2023-05-16T07:13:01;13.70;99.90
46590;DHT22;32313;48.722;9.362;2023-05-16T07:15:27;13.80;99.90
46590;DHT22;32313;48.722;9.362;2023-05-16T07:17:52;13.80;99.90
46590;DHT22;32313;48.722;9.362;2023-05-16T07:20:18;13.90;99.90
46590;DHT22;32313;48.722;9.362;2023-05-16T07:22:44;14.00;99.90
46590;DHT22;32313;48.722;9.362;2023-05-16T07:25:10;14.00;99.90
46590;DHT22;32313;48.722;9.362;2023-05-16T07:27:40;14.00;99.90
46590;DHT22;32313;48.722;9.362;2023-05-16T07:30:13;13.90;99.90
46590;DHT22;32313;48.722;9.362;2023-05-16T07:32:39;13.80;99.90
46590;DHT22;32313;48.722;9.362;2023-05-16T07:35:06;13.70;99.90
46590;DHT22;32313;48.722;9.362;2023-05-16T07:37:32;13.80;99.90
46590;DHT22;32313;48.722;9.362;2023-05-16T07:39:58;13.90;99.90
46590;DHT22;32313;48.722;9.362;2023-05-16T07:42:23;14.00;99.90
46590;DHT22;32313;48.722;9.362;2023-05-16T07:44:49;14.10;99.90
46590;DHT22;32313;48.722;9.362;2023-05-16T07:47:15;14.20;99.90
46590;DHT22;32313;48.722;9.362;2023-05-16T07:49:41;14.30;99.90
46590;DHT22;32313;48.722;9.362;2023-05-16T07:52:07;14.30;99.90
46590;DHT22;32313;48.722;9.362;2023-05-16T07:54:33;14.30;99.90
46590;DHT22;32313;48.722;9.362;2023-05-16T07:57:00;14.30;99.90
46590;DHT22;32313;48.722;9.362;2023-05-16T07:59:26;14.40;99.90
46590;DHT22;32313;48.722;9.362;2023-05-16T08:01:52;14.30;99.90
46590;DHT22;32313;48.722;9.362;2023-05-16T08:04:19;14.20;99.90
46590;DHT22;32313;48.722;9.362;2023-05-16T08:06:45;14.10;99.90
46590;DHT22;32313;48.722;9.362;2023-05-16T08:09:11;14.00;99.90
46590;DHT22;32313;48.722;9.362;2023-05-16T08:11:37;14.00;99.90
46590;DHT22;32313;48.722;9.362;2023-05-16T08:14:04;14.10;99.90
46590;DHT22;32313;48.722;9.362;2023-05-16T08:16:30;14.10;99.90
46590;DHT22;32313;48.722;9.362;2023-05-16T08:18:56;14.10;99.90
46590;DHT22;32313;48.722;9.362;2023-05-16T08:21:22;14.10;99.90
46590;DHT22;32313;48.722;9.362;2023-05-16T08:23:48;14.10;99.90
46590;DHT22;32313;48.722;9.362;2023-05-16T08:26:16;14.20;99.90
46590;DHT22;32313;48.722;9.362;2023-05-16T08:28:42;14.40;99.90
46590;DHT22;32313;48.722;9.362;2023-05-16T08:31:08;14.50;99.90
46590;DHT22;32313;48.722;9.362;2023-05-16T08:33:33;14.30;99.90
46590;DHT22;32313;48.722;9.362;2023-05-16T08:36:00;14.20;99.90
46590;DHT22;32313;48.722;9.362;2023-05-16T08:38:26;13.90;99.90
46590;DHT22;32313;48.722;9.362;2023-05-16T08:40:52;13.70;99.90
46590;DHT22;32313;48.722;9.362;2023-05-16T08:43:17;13.60;99.90
46590;DHT22;32313;48.722;9.362;2023-05-16T08:45:44;13.50;99.90
46590;DHT22;32313;48.722;9.362;2023-05-16T08:48:10;13.30;99.90
46590;DHT22;32313;48.722;9.362;2023-05-16T08:50:36;13.20;99.90
46590;DHT22;32313;48.722;9.362;2023-05-16T08:53:06;13.20;99.90
46590;DHT22;32313;48.722;9.362;2023-05-16T08:55:33;13.10;99.90
46590;DHT22;32313;48.722;9.362;2023-05-16T08:57:59;12.90;99.90
46590;DHT22;32313;48.722;9.362;2023-05-16T09:00:27;12.90;99.90
46590;DHT22;32313;48.722;9.362;2023-05-16T09:02:53;12.70;99.90
46590;DHT22;32313;48.722;9.362;2023-05-16T09:05:20;12.60;99.90
46590;DHT22;32313;48.722;9.362;2023-05-16T09:07:46;12.50;99.90
46590;DHT22;32313;48.722;9.362;2023-05-16T09:10:12;12.50;99.90
46590;DHT22;32313;48.722;9.362;2023-05-16T09:12:39;12.40;99.90
46590;DHT22;32313;48.722;9.362;2023-05-16T09:15:07;12.40;99.90
46590;DHT22;32313;48.722;9.362;2023-05-16T09:17:38;12.30;99.90
46590;DHT22;32313;48.722;9.362;2023-05-16T09:20:08;12.40;99.90
46590;DHT22;32313;48.722;9.362;2023-05-16T09:22:36;12.30;99.90
46590;DHT22;32313;48.722;9.362;2023-05-16T09:25:02;12.30;99.90
46590;DHT22;32313;48.722;9.362;2023-05-16T09:27:30;12.30;99.90
46590;DHT22;32313;48.722;9.362;2023-05-16T09:29:57;12.30;99.90
46590;DHT22;32313;48.722;9.362;2023-05-16T09:32:24;12.30;99.90
46590;DHT22;32313;48.722;9.362;2023-05-16T09:34:52;12.30;99.90
46590;DHT22;32313;48.722;9.362;2023-05-16T09:37:18;12.40;99.90
46590;DHT22;32313;48.722;9.362;2023-05-16T09:39:49;12.40;99.90
46590;DHT22;32313;48.722;9.362;2023-05-16T09:42:16;12.50;99.90
46590;DHT22;32313;48.722;9.362;2023-05-16T09:44:52;12.50;99.90
46590;DHT22;32313;48.722;9.362;2023-05-16T09:47:20;12.50;99.90
46590;DHT22;32313;48.722;9.362;2023-05-16T09:49:50;12.60;99.90
46590;DHT22;32313;48.722;9.362;2023-05-16T09:52:16;12.60;99.90
46590;DHT22;32313;48.722;9.362;2023-05-16T09:54:45;12.60;99.90
46590;DHT22;32313;48.722;9.362;2023-05-16T09:57:17;12.70;99.90
46590;DHT22;32313;48.722;9.362;2023-05-16T09:59:44;12.80;99.90
46590;DHT22;32313;48.722;9.362;2023-05-16T10:02:10;12.80;99.90
46590;DHT22;32313;48.722;9.362;2023-05-16T10:04:37;12.80;99.90
46590;DHT22;32313;48.722;9.362;2023-05-16T10:07:04;12.80;99.90
46590;DHT22;32313;48.722;9.362;2023-05-16T10:09:35;13.00;99.90
46590;DHT22;32313;48.722;9.362;2023-05-16T10:12:02;13.10;99.90
46590;DHT22;32313;48.722;9.362;2023-05-16T10:14:33;13.30;99.90
46590;DHT22;32313;48.722;9.362;2023-05-16T10:17:00;13.50;99.90
46590;DHT22;32313;48.722;9.362;2023-05-16T10:19:27;13.70;99.90
46590;DHT22;32313;48.722;9.362;2023-05-16T10:21:57;13.90;99.90
46590;DHT22;32313;48.722;9.362;2023-05-16T10:24:28;14.10;99.90
46590;DHT22;32313;48.722;9.362;2023-05-16T10:26:57;14.20;99.90
46590;DHT22;32313;48.722;9.362;2023-05-16T10:29:23;14.10;99.90
46590;DHT22;32313;48.722;9.362;2023-05-16T10:31:50;14.10;99.90
46590;DHT22;32313;48.722;9.362;2023-05-16T10:34:17;14.10;99.90
46590;DHT22;32313;48.722;9.362;2023-05-16T10:36:44;14.10;99.90
46590;DHT22;32313;48.722;9.362;2023-05-16T10:39:11;14.20;99.90
46590;DHT22;32313;48.722;9.362;2023-05-16T10:41:38;14.40;99.90
46590;DHT22;32313;48.722;9.362;2023-05-16T10:44:12;14.50;99.90
46590;DHT22;32313;48.722;9.362;2023-05-16T10:46:39;14.50;99.90
46590;DHT22;32313;48.722;9.362;2023-05-16T10:49:22;14.40;99.90
46590;DHT22;32313;48.722;9.362;2023-05-16T10:52:09;14.30;99.90
46590;DHT22;32313;48.722;9.362;2023-05-16T10:54:39;14.00;99.90
46590;DHT22;32313;48.722;9.362;2023-05-16T10:57:11;13.90;99.90
46590;DHT22;32313;48.722;9.362;2023-05-16T10:59:46;13.80;99.90
46590;DHT22;32313;48.722;9.362;2023-05-16T11:02:22;13.70;99.90
46590;DHT22;32313;48.722;9.362;2023-05-16T11:04:50;13.70;99.90
46590;DHT22;32313;48.722;9.362;2023-05-16T11:07:18;13.70;99.90
46590;DHT22;32313;48.722;9.362;2023-05-16T11:09:49;13.80;99.90
46590;DHT22;32313;48.722;9.362;2023-05-16T11:12:19;13.90;99.90
46590;DHT22;32313;48.722;9.362;2023-05-16T11:14:50;14.00;99.90
46590;DHT22;32313;48.722;9.362;2023-05-16T11:17:38;14.10;99.90
46590;DHT22;32313;48.722;9.362;2023-05-16T11:20:04;14.20;99.90
46590;DHT22;32313;48.722;9.362;2023-05-16T11:22:37;14.20;99.90
46590;DHT22;32313;48.722;9.362;2023-05-16T11:25:07;14.40;99.90
46590;DHT22;32313;48.722;9.362;2023-05-16T11:27:35;14.50;99.90
46590;DHT22;32313;48.722;9.362;2023-05-16T11:32:33;14.50;99.90
46590;DHT22;32313;48.722;9.362;2023-05-16T11:34:59;14.50;99.90
46590;DHT22;32313;48.722;9.362;2023-05-16T11:37:26;14.50;99.90
46590;DHT22;32313;48.722;9.362;2023-05-16T11:39:52;14.50;99.90
46590;DHT22;32313;48.722;9.362;2023-05-16T11:42:19;14.50;99.90
46590;DHT22;32313;48.722;9.362;2023-05-16T11:44:45;14.50;99.90
46590;DHT22;32313;48.722;9.362;2023-05-16T11:47:11;14.50;99.90
46590;DHT22;32313;48.722;9.362;2023-05-16T11:49:37;14.40;99.90
46590;DHT22;32313;48.722;9.362;2023-05-16T11:52:03;14.50;99.90
46590;DHT22;32313;48.722;9.362;2023-05-16T11:54:30;14.70;99.90
46590;DHT22;32313;48.722;9.362;2023-05-16T11:56:56;14.70;99.90
46590;DHT22;32313;48.722;9.362;2023-05-16T11:59:22;14.60;99.90
46590;DHT22;32313;48.722;9.362;2023-05-16T12:01:48;14.50;99.90
46590;DHT22;32313;48.722;9.362;2023-05-16T12:04:15;14.30;99.90
46590;DHT22;32313;48.722;9.362;2023-05-16T12:06:42;14.00;99.90
46590;DHT22;32313;48.722;9.362;2023-05-16T12:09:13;13.70;99.90
46590;DHT22;32313;48.722;9.362;2023-05-16T12:11:40;13.50;99.90
46590;DHT22;32313;48.722;9.362;2023-05-16T12:14:08;13.40;99.90
46590;DHT22;32313;48.722;9.362;2023-05-16T12:16:35;13.30;99.90
46590;DHT22;32313;48.722;9.362;2023-05-16T12:19:03;13.20;99.90
46590;DHT22;32313;48.722;9.362;2023-05-16T12:21:30;13.00;99.90
46590;DHT22;32313;48.722;9.362;2023-05-16T12:23:56;12.80;99.90
46590;DHT22;32313;48.722;9.362;2023-05-16T12:26:30;12.60;99.90
46590;DHT22;32313;48.722;9.362;2023-05-16T12:28:57;12.40;99.90
46590;DHT22;32313;48.722;9.362;2023-05-16T12:31:26;12.20;99.90
46590;DHT22;32313;48.722;9.362;2023-05-16T12:33:52;12.10;99.90
46590;DHT22;32313;48.722;9.362;2023-05-16T12:36:20;12.00;99.90
46590;DHT22;32313;48.722;9.362;2023-05-16T12:38:47;11.80;99.90
46590;DHT22;32313;48.722;9.362;2023-05-16T12:43:46;11.70;99.90
46590;DHT22;32313;48.722;9.362;2023-05-16T12:46:12;11.80;99.90
46590;DHT22;32313;48.722;9.362;2023-05-16T12:48:38;11.80;99.90
46590;DHT22;32313;48.722;9.362;2023-05-16T12:51:16;11.90;99.90
46590;DHT22;32313;48.722;9.362;2023-05-16T12:53:45;11.90;99.90
46590;DHT22;32313;48.722;9.362;2023-05-16T12:56:12;12.00;99.90
46590;DHT22;32313;48.722;9.362;2023-05-16T12:58:38;12.20;99.90
46590;DHT22;32313;48.722;9.362;2023-05-16T13:01:05;12.30;99.90
46590;DHT22;32313;48.722;9.362;2023-05-16T13:03:31;12.40;99.90
46590;DHT22;32313;48.722;9.362;2023-05-16T13:05:57;12.60;99.90
46590;DHT22;32313;48.722;9.362;2023-05-16T13:08:25;12.70;99.90
46590;DHT22;32313;48.722;9.362;2023-05-16T13:10:51;12.70;99.90
46590;DHT22;32313;48.722;9.362;2023-05-16T13:13:17;12.90;99.90
46590;DHT22;32313;48.722;9.362;2023-05-16T13:15:46;12.90;99.90
46590;DHT22;32313;48.722;9.362;2023-05-16T13:18:13;13.00;99.90
46590;DHT22;32313;48.722;9.362;2023-05-16T13:20:39;13.10;99.90
46590;DHT22;32313;48.722;9.362;2023-05-16T13:23:05;13.20;99.90
46590;DHT22;32313;48.722;9.362;2023-05-16T13:25:32;13.20;99.90
46590;DHT22;32313;48.722;9.362;2023-05-16T13:27:57;13.20;99.90
46590;DHT22;32313;48.722;9.362;2023-05-16T13:30:23;13.20;99.90
46590;DHT22;32313;48.722;9.362;2023-05-16T13:32:49;13.20;99.90
46590;DHT22;32313;48.722;9.362;2023-05-16T13:35:17;13.20;99.90
46590;DHT22;32313;48.722;9.362;2023-05-16T13:37:43;13.20;99.90
46590;DHT22;32313;48.722;9.362;2023-05-16T13:40:09;13.20;99.90
46590;DHT22;32313;48.722;9.362;2023-05-16T13:42:38;13.20;99.90
46590;DHT22;32313;48.722;9.362;2023-05-16T13:45:04;13.20;99.90
46590;DHT22;32313;48.722;9.362;2023-05-16T13:47:31;13.00;99.90
46590;DHT22;32313;48.722;9.362;2023-05-16T13:50:00;12.80;99.90
46590;DHT22;32313;48.722;9.362;2023-05-16T13:52:32;12.70;99.90
46590;DHT22;32313;48.722;9.362;2023-05-16T13:54:58;12.70;99.90
46590;DHT22;32313;48.722;9.362;2023-05-16T13:57:23;12.80;99.90
46590;DHT22;32313;48.722;9.362;2023-05-16T13:59:52;12.60;99.90
46590;DHT22;32313;48.722;9.362;2023-05-16T14:02:18;12.50;99.90
46590;DHT22;32313;48.722;9.362;2023-05-16T14:04:44;12.50;99.90
46590;DHT22;32313;48.722;9.362;2023-05-16T14:07:10;12.40;99.90
46590;DHT22;32313;48.722;9.362;2023-05-16T14:09:36;12.40;99.90
46590;DHT22;32313;48.722;9.362;2023-05-16T14:12:06;12.60;99.90
46590;DHT22;32313;48.722;9.362;2023-05-16T14:14:33;12.70;99.90
46590;DHT22;32313;48.722;9.362;2023-05-16T14:16:59;12.80;99.90
46590;DHT22;32313;48.722;9.362;2023-05-16T14:19:25;13.00;99.90
46590;DHT22;32313;48.722;9.362;2023-05-16T14:21:51;13.00;99.90
46590;DHT22;32313;48.722;9.362;2023-05-16T14:24:16;13.00;99.90
46590;DHT22;32313;48.722;9.362;2023-05-16T14:26:42;12.90;99.90
46590;DHT22;32313;48.722;9.362;2023-05-16T14:29:08;12.90;99.90
46590;DHT22;32313;48.722;9.362;2023-05-16T14:31:34;12.80;99.90
46590;DHT22;32313;48.722;9.362;2023-05-16T14:34:01;12.70;99.90
46590;DHT22;32313;48.722;9.362;2023-05-16T14:36:27;12.70;99.90
46590;DHT22;32313;48.722;9.362;2023-05-16T14:38:52;12.70;99.90
46590;DHT22;32313;48.722;9.362;2023-05-16T14:41:18;12.70;99.90
46590;DHT22;32313;48.722;9.362;2023-05-16T14:43:44;12.60;99.90
46590;DHT22;32313;48.722;9.362;2023-05-16T14:46:10;12.60;99.90
46590;DHT22;32313;48.722;9.362;2023-05-16T14:48:36;12.70;99.90
46590;DHT22;32313;48.722;9.362;2023-05-16T14:51:02;12.70;99.90
46590;DHT22;32313;48.722;9.362;2023-05-16T14:53:29;12.60;99.90
46590;DHT22;32313;48.722;9.362;2023-05-16T14:55:55;12.60;99.90
46590;DHT22;32313;48.722;9.362;2023-05-16T14:58:21;12.60;99.90
46590;DHT22;32313;48.722;9.362;2023-05-16T15:00:48;12.60;99.90
46590;DHT22;32313;48.722;9.362;2023-05-16T15:03:15;12.60;99.90
46590;DHT22;32313;48.722;9.362;2023-05-16T15:05:42;12.50;99.90
46590;DHT22;32313;48.722;9.362;2023-05-16T15:08:07;12.50;99.90
46590;DHT22;32313;48.722;9.362;2023-05-16T15:10:33;12.50;99.90
46590;DHT22;32313;48.722;9.362;2023-05-16T15:12:59;12.50;99.90
46590;DHT22;32313;48.722;9.362;2023-05-16T15:15:25;12.50;99.90
46590;DHT22;32313;48.722;9.362;2023-05-16T15:17:50;12.50;99.90
46590;DHT22;32313;48.722;9.362;2023-05-16T15:20:18;12.50;99.90
46590;DHT22;32313;48.722;9.362;2023-05-16T15:22:43;12.40;99.90
46590;DHT22;32313;48.722;9.362;2023-05-16T15:25:10;12.40;99.90
46590;DHT22;32313;48.722;9.362;2023-05-16T15:27:36;12.30;99.90
46590;DHT22;32313;48.722;9.362;2023-05-16T15:30:02;12.20;99.90
46590;DHT22;32313;48.722;9.362;2023-05-16T15:32:28;12.10;99.90
46590;DHT22;32313;48.722;9.362;2023-05-16T15:34:53;12.10;99.90
46590;DHT22;32313;48.722;9.362;2023-05-16T15:37:20;12.00;99.90
46590;DHT22;32313;48.722;9.362;2023-05-16T15:39:46;12.00;99.90
46590;DHT22;32313;48.722;9.362;2023-05-16T15:42:12;11.90;99.90
46590;DHT22;32313;48.722;9.362;2023-05-16T15:44:39;11.90;99.90
46590;DHT22;32313;48.722;9.362;2023-05-16T15:47:05;11.90;99.90